createdAt,value
2018-12-11T00:01:48.914Z,6.10
2018-12-11T00:04:17.376Z,6.30
2018-12-11T00:06:49.533Z,6.30
2018-12-11T00:09:17.975Z,6.20
2018-12-11T00:11:46.613Z,6.00
2018-12-11T00:14:14.951Z,6.10
2018-12-11T00:16:43.590Z,6.30
2018-12-11T00:19:11.966Z,6.50
2018-12-11T00:24:42.742Z,6.70
2018-12-11T00:27:11.081Z,6.60
2018-12-11T00:29:39.338Z,6.60
2018-12-11T00:32:07.677Z,6.40
2018-12-11T00:34:35.955Z,6.30
2018-12-11T00:37:04.233Z,6.20
2018-12-11T00:39:32.466Z,6.20
2018-12-11T00:42:00.991Z,6.40
2018-12-11T00:44:29.220Z,6.40
2018-12-11T00:46:57.485Z,6.30
2018-12-11T00:49:26.181Z,6.50
2018-12-11T00:51:54.901Z,6.60
2018-12-11T00:54:23.219Z,6.50
2018-12-11T00:56:51.489Z,6.50
2018-12-11T00:59:20.003Z,6.70
2018-12-11T01:01:48.332Z,6.90
2018-12-11T01:04:16.584Z,6.60
2018-12-11T01:06:45.039Z,6.50
2018-12-11T01:09:13.360Z,6.40
2018-12-11T01:11:41.584Z,6.40
2018-12-11T01:14:10.153Z,6.30
2018-12-11T01:16:38.426Z,6.70
2018-12-11T01:19:06.868Z,6.50
2018-12-11T01:21:35.252Z,6.50
2018-12-11T01:24:03.477Z,6.40
2018-12-11T01:26:31.786Z,6.60
2018-12-11T01:29:00.131Z,6.50
2018-12-11T01:31:28.670Z,6.00
2018-12-11T01:33:56.944Z,6.00
2018-12-11T01:36:25.228Z,5.90
2018-12-11T01:38:53.616Z,5.90
2018-12-11T01:41:21.888Z,6.20
2018-12-11T01:43:50.199Z,6.20
2018-12-11T01:46:18.875Z,5.90
2018-12-11T01:48:47.125Z,6.10
2018-12-11T01:51:15.415Z,6.00
2018-12-11T01:53:43.722Z,5.90
2018-12-11T01:56:11.969Z,6.00
2018-12-11T01:58:40.245Z,6.20
2018-12-11T02:01:08.696Z,6.20
2018-12-11T02:03:36.951Z,6.20
2018-12-11T02:06:05.300Z,6.10
2018-12-11T02:08:33.769Z,6.00
2018-12-11T02:11:02.050Z,6.40
2018-12-11T02:13:30.485Z,6.40
2018-12-11T02:16:03.144Z,6.40
2018-12-11T02:18:31.367Z,6.30
2018-12-11T02:20:59.737Z,6.40
2018-12-11T02:23:27.998Z,6.40
2018-12-11T02:25:56.253Z,6.10
2018-12-11T02:28:24.570Z,6.30
2018-12-11T02:30:54.017Z,6.40
2018-12-11T02:33:22.411Z,6.20
2018-12-11T02:35:50.794Z,6.40
2018-12-11T02:38:19.201Z,6.40
2018-12-11T02:40:47.882Z,6.40
2018-12-11T02:43:16.144Z,6.60
2018-12-11T02:45:44.392Z,6.60
2018-12-11T02:48:12.834Z,6.00
2018-12-11T02:50:41.141Z,6.00
2018-12-11T02:53:09.468Z,6.10
2018-12-11T02:55:37.687Z,6.10
2018-12-11T02:58:05.934Z,5.80
2018-12-11T03:00:34.303Z,5.90
2018-12-11T03:03:02.581Z,6.00
2018-12-11T03:05:30.828Z,6.10
2018-12-11T03:07:59.133Z,5.90
2018-12-11T03:10:27.662Z,6.10
2018-12-11T03:12:56.001Z,6.40
2018-12-11T03:15:24.319Z,6.60
2018-12-11T03:17:52.617Z,6.30
2018-12-11T03:20:21.033Z,6.20
2018-12-11T03:22:49.310Z,6.20
2018-12-11T03:25:17.947Z,5.90
2018-12-11T03:27:46.185Z,6.00
2018-12-11T03:30:14.574Z,6.00
2018-12-11T03:32:42.980Z,6.50
2018-12-11T03:35:11.357Z,6.50
2018-12-11T03:37:39.787Z,6.30
2018-12-11T03:40:08.421Z,6.30
2018-12-11T03:42:36.691Z,6.30
2018-12-11T03:45:05.260Z,5.90
2018-12-11T03:47:33.641Z,5.90
2018-12-11T03:50:01.942Z,6.10
2018-12-11T03:52:30.290Z,5.90
2018-12-11T03:54:58.648Z,5.60
2018-12-11T03:57:26.932Z,5.40
2018-12-11T03:59:55.204Z,5.60
2018-12-11T04:02:23.649Z,5.70
2018-12-11T04:04:52.079Z,5.70
2018-12-11T04:07:20.363Z,5.90
2018-12-11T04:09:49.038Z,6.00
2018-12-11T04:12:17.569Z,5.90
2018-12-11T04:14:46.123Z,5.40
2018-12-11T04:17:14.510Z,5.40
2018-12-11T04:19:42.896Z,5.40
2018-12-11T04:22:11.159Z,5.50
2018-12-11T04:24:39.438Z,5.60
2018-12-11T04:27:07.827Z,5.70
2018-12-11T04:29:36.266Z,5.60
2018-12-11T04:32:04.622Z,5.70
2018-12-11T04:34:32.907Z,5.50
2018-12-11T04:37:01.820Z,5.60
2018-12-11T04:39:33.914Z,5.70
2018-12-11T04:42:00.548Z,5.90
2018-12-11T04:44:28.808Z,5.50
2018-12-11T04:46:57.468Z,5.70
2018-12-11T04:49:25.899Z,5.90
2018-12-11T04:51:54.493Z,6.00
2018-12-11T04:54:22.917Z,6.10
2018-12-11T04:56:52.184Z,6.20
2018-12-11T04:59:20.624Z,6.10
2018-12-11T05:01:49.129Z,5.80
2018-12-11T05:04:17.394Z,5.90
2018-12-11T05:06:45.956Z,5.90
2018-12-11T05:09:14.666Z,6.20
2018-12-11T05:11:43.071Z,6.30
2018-12-11T05:14:11.426Z,6.20
2018-12-11T05:16:39.703Z,6.10
2018-12-11T05:19:07.977Z,5.90
2018-12-11T05:21:36.256Z,5.70
2018-12-11T05:24:04.990Z,5.90
2018-12-11T05:26:33.334Z,6.00
2018-12-11T05:29:02.286Z,5.90
2018-12-11T05:31:30.874Z,5.60
2018-12-11T05:33:59.276Z,5.70
2018-12-11T05:36:27.706Z,6.10
2018-12-11T05:38:56.026Z,5.90
2018-12-11T05:41:24.352Z,5.90
2018-12-11T05:43:52.667Z,6.10
2018-12-11T05:46:21.179Z,6.20
2018-12-11T05:48:49.542Z,6.10
2018-12-11T05:51:19.272Z,6.50
2018-12-11T05:53:47.990Z,6.30
2018-12-11T05:56:16.360Z,6.30
2018-12-11T05:58:45.374Z,6.10
2018-12-11T06:01:13.735Z,6.10
2018-12-11T06:03:42.186Z,6.10
2018-12-11T06:06:12.136Z,6.10
2018-12-11T06:08:40.807Z,6.10
2018-12-11T06:11:09.383Z,6.10
2018-12-11T06:13:37.962Z,6.30
2018-12-11T06:16:06.692Z,6.40
2018-12-11T06:18:35.186Z,6.30
2018-12-11T06:21:03.505Z,6.50
2018-12-11T06:23:32.669Z,6.50
2018-12-11T06:26:02.257Z,6.50
2018-12-11T06:28:30.838Z,6.40
2018-12-11T06:31:01.143Z,6.50
2018-12-11T06:33:29.630Z,6.60
2018-12-11T06:35:58.206Z,6.80
2018-12-11T06:38:26.978Z,6.50
2018-12-11T06:40:55.801Z,6.30
2018-12-11T06:43:24.112Z,6.00
2018-12-11T06:45:53.010Z,6.10
2018-12-11T06:48:22.394Z,6.10
2018-12-11T06:50:51.289Z,6.50
2018-12-11T06:53:19.706Z,6.50
2018-12-11T06:55:48.687Z,6.00
2018-12-11T06:58:17.121Z,6.10
2018-12-11T07:00:45.477Z,5.90
2018-12-11T07:03:13.788Z,5.70
2018-12-11T07:05:42.129Z,5.80
2018-12-11T07:08:14.634Z,6.00
2018-12-11T07:10:43.159Z,5.70
2018-12-11T07:13:11.557Z,5.70
2018-12-11T07:15:39.969Z,5.80
2018-12-11T07:18:08.589Z,6.00
2018-12-11T07:20:37.010Z,6.00
2018-12-11T07:23:05.321Z,6.00
2018-12-11T07:25:33.690Z,5.80
2018-12-11T07:28:01.965Z,5.80
2018-12-11T07:30:30.449Z,6.00
2018-12-11T07:32:58.787Z,5.90
2018-12-11T07:35:27.018Z,5.90
2018-12-11T07:37:56.396Z,6.10
2018-12-11T07:40:24.811Z,6.10
2018-12-11T07:42:53.377Z,6.10
2018-12-11T07:45:21.834Z,6.10
2018-12-11T07:47:50.124Z,6.20
2018-12-11T07:50:18.456Z,6.20
2018-12-11T07:52:46.818Z,6.20
2018-12-11T07:55:15.157Z,6.20
2018-12-11T07:57:43.462Z,5.80
2018-12-11T08:00:11.860Z,5.70
2018-12-11T08:02:40.286Z,5.80
2018-12-11T08:05:08.564Z,6.10
2018-12-11T08:07:36.835Z,6.20
2018-12-11T08:10:06.083Z,6.40
2018-12-11T08:12:34.386Z,6.40
2018-12-11T08:15:02.672Z,6.40
2018-12-11T08:17:31.059Z,6.40
2018-12-11T08:19:59.340Z,6.30
2018-12-11T08:22:27.654Z,6.30
2018-12-11T08:27:32.436Z,6.50
2018-12-11T08:30:04.843Z,6.40
2018-12-11T08:32:33.178Z,6.60
2018-12-11T08:35:01.505Z,6.40
2018-12-11T08:37:29.785Z,6.40
2018-12-11T08:39:58.157Z,6.50
2018-12-11T08:42:26.534Z,6.50
2018-12-11T08:44:54.877Z,6.60
2018-12-11T08:47:23.187Z,6.70
2018-12-11T08:49:51.590Z,6.60
2018-12-11T08:52:38.334Z,6.80
2018-12-11T08:55:06.877Z,7.00
2018-12-11T08:57:35.172Z,7.00
2018-12-11T09:00:03.835Z,6.90
2018-12-11T09:02:32.192Z,6.80
2018-12-11T09:05:00.547Z,6.90
2018-12-11T09:07:28.854Z,6.60
2018-12-11T09:09:57.226Z,7.10
2018-12-11T09:12:25.490Z,7.20
2018-12-11T09:14:53.785Z,7.10
2018-12-11T09:17:22.067Z,7.40
2018-12-11T09:19:50.443Z,7.20
2018-12-11T09:22:18.728Z,7.40
2018-12-11T09:24:47.043Z,7.10
2018-12-11T09:27:15.569Z,7.20
2018-12-11T09:29:43.917Z,7.20
2018-12-11T09:32:12.232Z,7.40
2018-12-11T09:34:40.748Z,7.40
2018-12-11T09:37:09.038Z,7.10
2018-12-11T09:39:37.321Z,7.10
2018-12-11T09:42:07.264Z,7.10
2018-12-11T09:44:35.970Z,6.90
2018-12-11T09:47:04.297Z,6.70
2018-12-11T09:49:32.638Z,6.90
2018-12-11T09:52:00.938Z,7.10
2018-12-11T09:54:29.221Z,7.20
2018-12-11T09:56:58.026Z,7.20
2018-12-11T09:59:26.437Z,7.00
2018-12-11T10:01:55.158Z,7.00
2018-12-11T10:04:23.419Z,7.40
2018-12-11T10:06:51.758Z,7.40
2018-12-11T10:09:20.042Z,7.40
2018-12-11T10:11:48.305Z,7.80
2018-12-11T10:14:16.720Z,8.00
2018-12-11T10:16:44.964Z,8.10
2018-12-11T10:19:13.221Z,7.80
2018-12-11T10:21:41.468Z,7.90
2018-12-11T10:24:09.708Z,8.30
2018-12-11T10:26:38.151Z,8.40
2018-12-11T10:29:06.400Z,8.00
2018-12-11T10:31:34.689Z,8.20
2018-12-11T10:34:02.944Z,8.10
2018-12-11T10:36:31.247Z,8.00
2018-12-11T10:38:59.486Z,7.70
2018-12-11T10:41:27.720Z,7.30
2018-12-11T10:43:55.988Z,7.10
2018-12-11T10:46:24.249Z,7.70
2018-12-11T10:48:52.559Z,7.90
2018-12-11T10:51:20.800Z,7.60
2018-12-11T10:53:49.044Z,7.60
2018-12-11T10:56:17.511Z,7.40
2018-12-11T10:58:45.773Z,7.70
2018-12-11T11:01:18.913Z,8.00
2018-12-11T11:03:47.562Z,8.00
2018-12-11T11:06:15.840Z,8.10
2018-12-11T11:08:44.105Z,8.50
2018-12-11T11:11:12.460Z,8.10
2018-12-11T11:13:40.977Z,8.20
2018-12-11T11:16:14.958Z,8.20
2018-12-11T11:18:44.572Z,8.00
2018-12-11T11:21:13.016Z,8.00
2018-12-11T11:23:41.293Z,7.70
2018-12-11T11:26:10.428Z,7.70
2018-12-11T11:28:38.712Z,7.80
2018-12-11T11:31:07.143Z,7.60
2018-12-11T11:33:36.123Z,8.00
2018-12-11T11:36:07.483Z,8.10
2018-12-11T11:38:35.964Z,8.30
2018-12-11T11:41:04.227Z,8.20
2018-12-11T11:43:32.540Z,8.40
2018-12-11T11:46:00.945Z,8.80
2018-12-11T11:48:29.325Z,8.60
2018-12-11T11:50:57.556Z,8.70
2018-12-11T11:53:25.812Z,8.20
2018-12-11T11:55:54.073Z,8.40
2018-12-11T11:58:22.697Z,8.30
2018-12-11T12:00:51.209Z,8.40
2018-12-11T12:03:19.533Z,8.30
2018-12-11T12:05:47.831Z,7.90
2018-12-11T12:08:16.068Z,7.80
2018-12-11T12:10:44.399Z,8.10
2018-12-11T12:13:13.013Z,7.70
2018-12-11T12:15:41.495Z,7.50
2018-12-11T12:18:09.796Z,7.40
2018-12-11T12:20:38.178Z,7.60
2018-12-11T12:23:06.469Z,7.90
2018-12-11T12:25:34.769Z,8.30
2018-12-11T12:28:03.080Z,8.50
2018-12-11T12:33:30.228Z,8.30
2018-12-11T12:35:58.651Z,8.70
2018-12-11T12:38:26.985Z,8.90
2018-12-11T12:40:55.454Z,8.80
2018-12-11T12:43:23.738Z,8.90
2018-12-11T12:45:51.995Z,9.20
2018-12-11T12:48:20.297Z,8.90
2018-12-11T12:50:48.554Z,8.40
2018-12-11T12:53:16.932Z,8.40
2018-12-11T12:55:45.224Z,7.90
2018-12-11T12:58:13.705Z,7.20
2018-12-11T13:00:42.074Z,6.80
2018-12-11T13:03:10.313Z,6.50
2018-12-11T13:05:40.214Z,6.50
2018-12-11T13:08:08.472Z,6.70
2018-12-11T13:10:36.848Z,6.80
2018-12-11T13:13:05.192Z,6.80
2018-12-11T13:15:33.480Z,7.00
2018-12-11T13:18:01.698Z,7.10
2018-12-11T13:20:29.938Z,7.20
2018-12-11T13:22:58.181Z,7.60
2018-12-11T13:25:26.433Z,7.60
2018-12-11T13:27:54.777Z,7.60
2018-12-11T13:30:23.013Z,7.60
2018-12-11T13:32:51.300Z,7.40
2018-12-11T13:35:19.766Z,7.50
2018-12-11T13:37:48.051Z,7.70
2018-12-11T13:40:16.428Z,7.80
2018-12-11T13:42:44.894Z,7.70
2018-12-11T13:45:13.384Z,7.70
2018-12-11T13:47:41.853Z,7.80
2018-12-11T13:50:10.488Z,8.00
2018-12-11T13:52:38.942Z,7.80
2018-12-11T13:55:07.385Z,7.60
2018-12-11T13:57:35.646Z,7.70
2018-12-11T14:00:04.388Z,7.80
2018-12-11T14:02:32.661Z,7.60
2018-12-11T14:05:01.006Z,7.80
2018-12-11T14:07:29.333Z,7.50
2018-12-11T14:09:57.589Z,7.70
2018-12-11T14:12:26.049Z,7.70
2018-12-11T14:14:54.366Z,7.60
2018-12-11T14:17:22.743Z,7.60
2018-12-11T14:19:51.349Z,7.60
2018-12-11T14:22:19.801Z,7.70
2018-12-11T14:24:48.128Z,7.70
2018-12-11T14:27:16.494Z,8.20
2018-12-11T14:29:44.814Z,8.40
2018-12-11T14:32:13.105Z,8.50
2018-12-11T14:34:41.429Z,8.60
2018-12-11T14:37:09.778Z,8.20
2018-12-11T14:39:38.289Z,8.40
2018-12-11T14:42:06.539Z,8.30
2018-12-11T14:44:36.223Z,8.30
2018-12-11T14:47:05.762Z,8.50
2018-12-11T14:49:34.436Z,8.40
2018-12-11T14:52:03.167Z,8.10
2018-12-11T14:54:31.564Z,8.00
2018-12-11T14:56:59.925Z,8.30
2018-12-11T14:59:28.396Z,7.90
2018-12-11T15:01:56.682Z,7.80
2018-12-11T15:04:25.155Z,7.70
2018-12-11T15:06:53.714Z,7.70
2018-12-11T15:09:27.464Z,8.00
2018-12-11T15:11:56.540Z,7.70
2018-12-11T15:14:25.399Z,8.00
2018-12-11T15:16:54.074Z,7.90
2018-12-11T15:48:49.343Z,7.60
2018-12-11T15:51:17.714Z,7.40
2018-12-11T15:53:45.979Z,7.40
2018-12-11T15:56:14.393Z,7.60
2018-12-11T15:58:42.639Z,7.70
2018-12-11T16:01:10.847Z,7.70
2018-12-11T16:03:39.086Z,7.60
2018-12-11T16:06:07.457Z,7.50
2018-12-11T16:08:35.749Z,7.40
2018-12-11T16:11:04.097Z,7.40
2018-12-11T16:13:32.576Z,7.40
2018-12-11T16:16:00.961Z,7.50
2018-12-11T16:18:29.380Z,7.30
2018-12-11T16:20:57.667Z,7.40
2018-12-11T16:23:26.240Z,7.30
2018-12-11T16:25:54.496Z,7.50
2018-12-11T16:28:22.884Z,7.60
2018-12-11T16:30:51.140Z,7.50
2018-12-11T16:33:19.492Z,7.40
2018-12-11T16:35:47.759Z,7.10
2018-12-11T16:38:15.997Z,7.10
2018-12-11T16:40:44.306Z,6.90
2018-12-11T16:43:12.556Z,6.80
2018-12-11T16:45:40.918Z,6.90
2018-12-11T16:48:09.291Z,7.00
2018-12-11T16:50:38.442Z,7.10
2018-12-11T16:53:07.612Z,7.20
2018-12-11T16:55:35.973Z,7.00
2018-12-11T16:58:04.373Z,7.10
2018-12-11T17:00:32.700Z,7.10
2018-12-11T17:03:01.105Z,6.80
2018-12-11T17:05:29.405Z,6.70
2018-12-11T17:07:57.759Z,6.60
2018-12-11T17:10:26.135Z,6.60
2018-12-11T17:12:54.541Z,6.50
2018-12-11T17:15:25.125Z,6.40
2018-12-11T17:17:53.415Z,6.60
2018-12-11T17:20:21.713Z,6.70
2018-12-11T17:22:50.393Z,6.60
2018-12-11T17:25:18.724Z,6.60
2018-12-11T17:27:47.006Z,6.60
2018-12-11T17:30:15.371Z,6.60
2018-12-11T17:32:43.684Z,6.70
2018-12-11T17:35:12.121Z,6.80
2018-12-11T17:37:40.533Z,6.70
2018-12-11T17:40:09.311Z,6.60
2018-12-11T17:42:37.725Z,6.60
2018-12-11T17:45:06.229Z,6.50
2018-12-11T17:47:34.651Z,6.60
2018-12-11T17:50:04.056Z,6.70
2018-12-11T17:52:32.371Z,6.60
2018-12-11T17:55:00.732Z,6.50
2018-12-11T17:57:29.079Z,6.50
2018-12-11T17:59:57.534Z,6.40
2018-12-11T18:02:35.597Z,6.30
2018-12-11T18:05:05.180Z,6.40
2018-12-11T18:07:33.482Z,6.20
2018-12-11T18:10:01.898Z,6.20
2018-12-11T18:12:30.219Z,6.10
2018-12-11T18:14:58.494Z,6.00
2018-12-11T18:17:26.786Z,5.80
2018-12-11T18:19:55.189Z,5.70
2018-12-11T18:22:23.434Z,5.80
2018-12-11T18:24:51.742Z,5.80
2018-12-11T18:27:20.034Z,5.70
2018-12-11T18:29:48.312Z,5.60
2018-12-11T18:32:16.692Z,5.70
2018-12-11T18:34:46.588Z,5.70
2018-12-11T18:37:14.980Z,5.60
2018-12-11T18:39:43.573Z,5.60
2018-12-11T18:42:11.956Z,5.60
2018-12-11T18:44:40.329Z,5.50
2018-12-11T18:47:08.616Z,5.60
2018-12-11T18:49:37.075Z,5.60
2018-12-11T18:52:05.442Z,5.50
2018-12-11T18:54:33.787Z,5.50
2018-12-11T18:57:04.004Z,5.50
2018-12-11T18:59:33.615Z,5.40
2018-12-11T19:02:02.053Z,5.50
2018-12-11T19:04:30.481Z,5.40
2018-12-11T19:06:58.950Z,5.40
2018-12-11T19:09:30.614Z,5.50
2018-12-11T19:11:59.224Z,5.50
2018-12-11T19:14:28.642Z,5.20
2018-12-11T19:16:57.083Z,5.00
2018-12-11T19:19:25.364Z,4.90
2018-12-11T19:21:54.060Z,4.90
2018-12-11T19:24:34.960Z,4.90
2018-12-11T19:27:03.798Z,4.90
2018-12-11T19:29:32.940Z,5.10
2018-12-11T19:32:03.471Z,5.10
2018-12-11T19:34:38.092Z,5.10
2018-12-11T19:37:13.751Z,5.10
2018-12-11T19:39:42.681Z,5.20
2018-12-11T19:42:11.833Z,5.30
2018-12-11T19:44:40.395Z,5.30
2018-12-11T19:47:09.469Z,5.30
2018-12-11T19:49:38.723Z,5.20
2018-12-11T19:52:07.673Z,5.20
2018-12-11T19:54:36.769Z,5.30
2018-12-11T19:57:06.024Z,5.20
2018-12-11T19:59:35.000Z,5.20
2018-12-11T20:02:04.091Z,5.40
2018-12-11T20:04:33.343Z,5.50
2018-12-11T20:07:03.504Z,5.30
2018-12-11T20:09:32.408Z,5.40
2018-12-11T20:12:00.985Z,5.40
2018-12-11T20:14:30.455Z,5.40
2018-12-11T20:16:59.595Z,5.50
2018-12-11T20:19:31.609Z,5.40
2018-12-11T20:22:00.555Z,5.40
2018-12-11T20:24:28.936Z,5.30
2018-12-11T20:26:58.524Z,5.40
2018-12-11T20:29:28.536Z,5.40
2018-12-11T20:31:58.365Z,5.10
2018-12-11T20:34:31.532Z,5.20
2018-12-11T20:37:03.756Z,5.20
2018-12-11T20:39:34.128Z,5.30
2018-12-11T20:42:07.054Z,5.40
2018-12-11T20:44:36.512Z,5.50
2018-12-11T20:47:06.407Z,5.50
2018-12-11T20:49:37.074Z,5.50
2018-12-11T20:52:10.096Z,5.50
2018-12-11T20:54:39.308Z,5.40
2018-12-11T20:57:10.727Z,5.40
2018-12-11T20:59:44.096Z,5.20
2018-12-11T21:02:17.102Z,5.30
2018-12-11T21:04:49.146Z,5.10
2018-12-11T21:07:17.987Z,5.00
2018-12-11T21:09:47.417Z,4.70
2018-12-11T21:12:16.270Z,4.80
2018-12-11T21:14:45.507Z,4.80
2018-12-11T21:17:14.030Z,4.80
2018-12-11T21:19:42.738Z,4.90
2018-12-11T21:22:11.256Z,4.60
2018-12-11T21:24:39.574Z,4.80
2018-12-11T21:27:07.975Z,4.70
2018-12-11T21:29:36.417Z,4.40
2018-12-11T21:32:04.682Z,4.20
2018-12-11T21:34:32.926Z,4.20
2018-12-11T21:37:01.305Z,4.30
2018-12-11T21:39:29.646Z,4.40
2018-12-11T21:45:11.946Z,4.50
2018-12-11T21:47:40.224Z,4.50
2018-12-11T21:50:08.951Z,4.50
2018-12-11T21:52:37.228Z,4.50
2018-12-11T21:55:06.729Z,4.50
2018-12-11T21:57:35.182Z,4.40
2018-12-11T22:00:04.665Z,4.50
2018-12-11T22:02:32.932Z,4.40
2018-12-11T22:05:01.183Z,4.40
2018-12-11T22:07:29.491Z,4.30
2018-12-11T22:09:57.836Z,4.40
2018-12-11T22:12:28.520Z,4.30
2018-12-11T22:14:56.935Z,4.10
2018-12-11T22:17:25.198Z,4.10
2018-12-11T22:19:53.471Z,4.00
2018-12-11T22:22:21.755Z,4.00
2018-12-11T22:24:50.557Z,4.00
2018-12-11T22:27:19.272Z,4.10
2018-12-11T22:29:48.219Z,3.90
2018-12-11T22:32:16.478Z,3.70
2018-12-11T22:34:44.777Z,3.60
2018-12-11T22:37:13.134Z,3.60
2018-12-11T22:39:41.390Z,3.60
2018-12-11T22:42:10.238Z,3.30
2018-12-11T22:44:38.701Z,3.30
2018-12-11T22:47:07.130Z,3.20
2018-12-11T22:49:35.430Z,3.30
2018-12-11T22:52:03.702Z,3.30
2018-12-11T22:54:32.162Z,3.30
2018-12-11T22:57:00.483Z,3.50
2018-12-11T22:59:28.747Z,3.70
2018-12-11T23:01:57.834Z,3.70
2018-12-11T23:04:26.170Z,3.70
2018-12-11T23:06:54.602Z,3.70
2018-12-11T23:09:22.947Z,3.70
2018-12-11T23:11:51.234Z,3.70
2018-12-11T23:14:19.440Z,3.70
2018-12-11T23:16:47.856Z,3.70
2018-12-11T23:19:16.117Z,3.80
2018-12-11T23:21:44.474Z,3.80
2018-12-11T23:24:12.685Z,3.70
2018-12-11T23:26:40.976Z,3.70
2018-12-11T23:29:09.188Z,3.70
2018-12-11T23:31:38.537Z,3.70
2018-12-11T23:34:07.051Z,3.80
2018-12-11T23:36:35.309Z,3.80
2018-12-11T23:39:06.745Z,3.80
2018-12-11T23:41:35.030Z,3.70
2018-12-11T23:44:03.425Z,3.90
2018-12-11T23:46:31.846Z,3.80
2018-12-11T23:49:00.768Z,3.80
2018-12-11T23:51:29.017Z,3.90
2018-12-11T23:53:57.313Z,4.00
2018-12-11T23:56:25.674Z,4.00
2018-12-11T23:58:54.518Z,4.10
